sensor_id;sensor_type;location;lat;lon;timestamp;P1;durP1;ratioP1;P2;durP2;ratioP2
2474;SDS011;1248;48.694;10.160;2022-09-13T00:01:46;7.80;;;6.10;;
2474;SDS011;1248;48.694;10.160;2022-09-13T00:04:13;10.23;;;6.93;;
2474;SDS011;1248;48.694;10.160;2022-09-13T00:06:40;10.80;;;6.90;;
2474;SDS011;1248;48.694;10.160;2022-09-13T00:09:07;9.20;;;7.07;;
2474;SDS011;1248;48.694;10.160;2022-09-13T00:11:36;9.03;;;6.77;;
2474;SDS011;1248;48.694;10.160;2022-09-13T00:14:03;8.60;;;7.10;;
2474;SDS011;1248;48.694;10.160;2022-09-13T00:16:30;9.27;;;6.57;;
2474;SDS011;1248;48.694;10.160;2022-09-13T00:18:58;8.90;;;6.50;;
2474;SDS011;1248;48.694;10.160;2022-09-13T00:21:25;7.30;;;6.60;;
2474;SDS011;1248;48.694;10.160;2022-09-13T00:23:53;10.13;;;6.87;;
2474;SDS011;1248;48.694;10.160;2022-09-13T00:26:21;12.77;;;7.00;;
2474;SDS011;1248;48.694;10.160;2022-09-13T00:28:51;7.10;;;6.40;;
2474;SDS011;1248;48.694;10.160;2022-09-13T00:31:19;10.70;;;7.17;;
2474;SDS011;1248;48.694;10.160;2022-09-13T00:33:47;7.77;;;6.97;;
2474;SDS011;1248;48.694;10.160;2022-09-13T00:36:14;11.60;;;6.43;;
2474;SDS011;1248;48.694;10.160;2022-09-13T00:38:42;7.90;;;5.80;;
2474;SDS011;1248;48.694;10.160;2022-09-13T00:41:11;8.60;;;7.17;;
2474;SDS011;1248;48.694;10.160;2022-09-13T00:43:41;6.77;;;6.17;;
2474;SDS011;1248;48.694;10.160;2022-09-13T00:46:12;8.30;;;6.33;;
2474;SDS011;1248;48.694;10.160;2022-09-13T00:48:43;10.30;;;6.30;;
2474;SDS011;1248;48.694;10.160;2022-09-13T00:51:10;7.47;;;6.37;;
2474;SDS011;1248;48.694;10.160;2022-09-13T00:53:38;8.40;;;6.50;;
2474;SDS011;1248;48.694;10.160;2022-09-13T00:56:08;7.97;;;6.60;;
2474;SDS011;1248;48.694;10.160;2022-09-13T00:58:38;6.90;;;5.60;;
2474;SDS011;1248;48.694;10.160;2022-09-13T01:01:07;8.20;;;6.37;;
2474;SDS011;1248;48.694;10.160;2022-09-13T01:03:37;8.17;;;6.33;;
2474;SDS011;1248;48.694;10.160;2022-09-13T01:06:06;10.43;;;6.90;;
2474;SDS011;1248;48.694;10.160;2022-09-13T01:08:35;10.37;;;7.30;;
2474;SDS011;1248;48.694;10.160;2022-09-13T01:11:03;9.03;;;6.67;;
2474;SDS011;1248;48.694;10.160;2022-09-13T01:13:33;8.70;;;7.27;;
2474;SDS011;1248;48.694;10.160;2022-09-13T01:16:01;12.27;;;6.97;;
2474;SDS011;1248;48.694;10.160;2022-09-13T01:18:28;9.37;;;6.43;;
2474;SDS011;1248;48.694;10.160;2022-09-13T01:21:03;10.33;;;7.07;;
2474;SDS011;1248;48.694;10.160;2022-09-13T01:23:58;7.40;;;6.20;;
2474;SDS011;1248;48.694;10.160;2022-09-13T01:26:41;7.00;;;6.27;;
2474;SDS011;1248;48.694;10.160;2022-09-13T01:29:22;9.27;;;7.27;;
2474;SDS011;1248;48.694;10.160;2022-09-13T01:32:02;7.63;;;6.73;;
2474;SDS011;1248;48.694;10.160;2022-09-13T01:34:34;6.93;;;6.17;;
2474;SDS011;1248;48.694;10.160;2022-09-13T01:37:14;10.07;;;6.37;;
2474;SDS011;1248;48.694;10.160;2022-09-13T01:39:55;8.70;;;7.53;;
2474;SDS011;1248;48.694;10.160;2022-09-13T01:42:32;14.10;;;6.67;;
2474;SDS011;1248;48.694;10.160;2022-09-13T01:45:09;7.30;;;6.17;;
2474;SDS011;1248;48.694;10.160;2022-09-13T01:47:46;9.17;;;7.53;;
2474;SDS011;1248;48.694;10.160;2022-09-13T01:50:17;9.87;;;7.70;;
2474;SDS011;1248;48.694;10.160;2022-09-13T01:52:49;10.53;;;6.80;;
2474;SDS011;1248;48.694;10.160;2022-09-13T01:55:24;12.27;;;7.50;;
2474;SDS011;1248;48.694;10.160;2022-09-13T01:57:56;8.10;;;6.50;;
2474;SDS011;1248;48.694;10.160;2022-09-13T02:00:29;8.87;;;7.97;;
2474;SDS011;1248;48.694;10.160;2022-09-13T02:03:03;8.67;;;7.00;;
2474;SDS011;1248;48.694;10.160;2022-09-13T02:05:32;10.33;;;7.17;;
2474;SDS011;1248;48.694;10.160;2022-09-13T02:08:03;10.77;;;7.00;;
2474;SDS011;1248;48.694;10.160;2022-09-13T02:10:34;9.40;;;6.60;;
2474;SDS011;1248;48.694;10.160;2022-09-13T02:13:05;13.70;;;7.77;;
2474;SDS011;1248;48.694;10.160;2022-09-13T02:15:37;10.13;;;7.80;;
2474;SDS011;1248;48.694;10.160;2022-09-13T02:18:07;13.60;;;6.73;;
2474;SDS011;1248;48.694;10.160;2022-09-13T02:20:36;10.07;;;7.00;;
2474;SDS011;1248;48.694;10.160;2022-09-13T02:23:06;11.90;;;6.77;;
2474;SDS011;1248;48.694;10.160;2022-09-13T02:25:36;9.07;;;6.90;;
2474;SDS011;1248;48.694;10.160;2022-09-13T02:28:04;9.10;;;6.77;;
2474;SDS011;1248;48.694;10.160;2022-09-13T02:30:35;10.03;;;7.80;;
2474;SDS011;1248;48.694;10.160;2022-09-13T02:33:06;7.27;;;6.07;;
2474;SDS011;1248;48.694;10.160;2022-09-13T02:35:37;6.63;;;6.03;;
2474;SDS011;1248;48.694;10.160;2022-09-13T02:38:07;10.03;;;7.40;;
2474;SDS011;1248;48.694;10.160;2022-09-13T02:40:37;7.90;;;6.50;;
2474;SDS011;1248;48.694;10.160;2022-09-13T02:43:07;10.57;;;7.67;;
2474;SDS011;1248;48.694;10.160;2022-09-13T02:45:39;8.27;;;6.37;;
2474;SDS011;1248;48.694;10.160;2022-09-13T02:48:17;8.23;;;6.47;;
2474;SDS011;1248;48.694;10.160;2022-09-13T02:50:48;9.77;;;7.10;;
2474;SDS011;1248;48.694;10.160;2022-09-13T02:53:25;7.87;;;6.60;;
2474;SDS011;1248;48.694;10.160;2022-09-13T02:55:58;8.10;;;6.97;;
2474;SDS011;1248;48.694;10.160;2022-09-13T02:58:30;7.03;;;5.90;;
2474;SDS011;1248;48.694;10.160;2022-09-13T03:01:01;8.87;;;6.87;;
2474;SDS011;1248;48.694;10.160;2022-09-13T03:03:29;7.13;;;6.43;;
2474;SDS011;1248;48.694;10.160;2022-09-13T03:05:56;8.80;;;6.70;;
2474;SDS011;1248;48.694;10.160;2022-09-13T03:08:24;7.97;;;7.23;;
2474;SDS011;1248;48.694;10.160;2022-09-13T03:10:55;11.60;;;6.90;;
2474;SDS011;1248;48.694;10.160;2022-09-13T03:13:44;10.83;;;5.97;;
2474;SDS011;1248;48.694;10.160;2022-09-13T03:16:23;8.43;;;6.17;;
2474;SDS011;1248;48.694;10.160;2022-09-13T03:19:02;8.90;;;7.37;;
2474;SDS011;1248;48.694;10.160;2022-09-13T03:21:42;13.67;;;7.37;;
2474;SDS011;1248;48.694;10.160;2022-09-13T03:24:19;9.47;;;6.90;;
2474;SDS011;1248;48.694;10.160;2022-09-13T03:26:53;8.13;;;7.00;;
2474;SDS011;1248;48.694;10.160;2022-09-13T03:29:30;16.40;;;7.10;;
2474;SDS011;1248;48.694;10.160;2022-09-13T03:32:04;8.30;;;7.50;;
2474;SDS011;1248;48.694;10.160;2022-09-13T03:34:42;9.77;;;6.97;;
2474;SDS011;1248;48.694;10.160;2022-09-13T03:37:16;9.10;;;7.90;;
2474;SDS011;1248;48.694;10.160;2022-09-13T03:39:50;10.90;;;7.03;;
2474;SDS011;1248;48.694;10.160;2022-09-13T03:42:21;11.00;;;7.80;;
2474;SDS011;1248;48.694;10.160;2022-09-13T03:44:51;14.93;;;6.90;;
2474;SDS011;1248;48.694;10.160;2022-09-13T03:47:21;8.30;;;7.30;;
2474;SDS011;1248;48.694;10.160;2022-09-13T03:49:51;8.97;;;6.63;;
2474;SDS011;1248;48.694;10.160;2022-09-13T03:52:19;7.53;;;6.70;;
2474;SDS011;1248;48.694;10.160;2022-09-13T03:54:46;8.90;;;6.30;;
2474;SDS011;1248;48.694;10.160;2022-09-13T03:57:14;7.97;;;6.63;;
2474;SDS011;1248;48.694;10.160;2022-09-13T03:59:45;9.00;;;6.40;;
2474;SDS011;1248;48.694;10.160;2022-09-13T04:02:13;9.20;;;6.70;;
2474;SDS011;1248;48.694;10.160;2022-09-13T04:04:41;12.30;;;7.10;;
2474;SDS011;1248;48.694;10.160;2022-09-13T04:07:11;13.43;;;8.70;;
2474;SDS011;1248;48.694;10.160;2022-09-13T04:09:39;19.70;;;9.57;;
2474;SDS011;1248;48.694;10.160;2022-09-13T04:12:06;16.27;;;7.63;;
2474;SDS011;1248;48.694;10.160;2022-09-13T04:14:34;14.97;;;8.77;;
2474;SDS011;1248;48.694;10.160;2022-09-13T04:17:02;12.90;;;7.90;;
2474;SDS011;1248;48.694;10.160;2022-09-13T04:19:29;13.70;;;8.90;;
2474;SDS011;1248;48.694;10.160;2022-09-13T04:21:56;13.67;;;8.37;;
2474;SDS011;1248;48.694;10.160;2022-09-13T04:24:25;13.27;;;8.57;;
2474;SDS011;1248;48.694;10.160;2022-09-13T04:26:53;9.10;;;6.80;;
2474;SDS011;1248;48.694;10.160;2022-09-13T04:29:21;11.97;;;8.33;;
2474;SDS011;1248;48.694;10.160;2022-09-13T04:31:50;15.53;;;9.43;;
2474;SDS011;1248;48.694;10.160;2022-09-13T04:34:18;9.40;;;7.37;;
2474;SDS011;1248;48.694;10.160;2022-09-13T04:36:46;13.10;;;8.00;;
2474;SDS011;1248;48.694;10.160;2022-09-13T04:39:14;12.60;;;7.30;;
2474;SDS011;1248;48.694;10.160;2022-09-13T04:41:43;15.30;;;8.00;;
2474;SDS011;1248;48.694;10.160;2022-09-13T04:44:11;11.20;;;8.17;;
2474;SDS011;1248;48.694;10.160;2022-09-13T04:46:38;15.00;;;6.83;;
2474;SDS011;1248;48.694;10.160;2022-09-13T04:49:06;8.80;;;7.00;;
2474;SDS011;1248;48.694;10.160;2022-09-13T04:51:33;11.90;;;8.07;;
2474;SDS011;1248;48.694;10.160;2022-09-13T04:54:00;14.10;;;8.47;;
2474;SDS011;1248;48.694;10.160;2022-09-13T04:56:27;10.80;;;8.07;;
2474;SDS011;1248;48.694;10.160;2022-09-13T04:58:56;11.23;;;7.30;;
2474;SDS011;1248;48.694;10.160;2022-09-13T05:01:24;7.43;;;6.50;;
2474;SDS011;1248;48.694;10.160;2022-09-13T05:03:51;8.97;;;8.10;;
2474;SDS011;1248;48.694;10.160;2022-09-13T05:06:18;11.03;;;7.23;;
2474;SDS011;1248;48.694;10.160;2022-09-13T05:08:48;14.88;;;8.00;;
2474;SDS011;1248;48.694;10.160;2022-09-13T05:11:16;9.50;;;8.10;;
2474;SDS011;1248;48.694;10.160;2022-09-13T05:13:43;9.70;;;7.80;;
2474;SDS011;1248;48.694;10.160;2022-09-13T05:16:18;10.87;;;7.30;;
2474;SDS011;1248;48.694;10.160;2022-09-13T05:18:46;13.70;;;8.80;;
2474;SDS011;1248;48.694;10.160;2022-09-13T05:21:13;15.63;;;8.37;;
2474;SDS011;1248;48.694;10.160;2022-09-13T05:23:40;13.83;;;8.63;;
2474;SDS011;1248;48.694;10.160;2022-09-13T05:26:07;10.70;;;8.23;;
2474;SDS011;1248;48.694;10.160;2022-09-13T05:28:35;13.53;;;8.23;;
2474;SDS011;1248;48.694;10.160;2022-09-13T05:31:03;8.80;;;7.90;;
2474;SDS011;1248;48.694;10.160;2022-09-13T05:33:33;30.87;;;9.77;;
2474;SDS011;1248;48.694;10.160;2022-09-13T05:36:01;9.47;;;8.47;;
2474;SDS011;1248;48.694;10.160;2022-09-13T05:38:28;13.03;;;8.80;;
2474;SDS011;1248;48.694;10.160;2022-09-13T05:40:57;10.07;;;8.27;;
2474;SDS011;1248;48.694;10.160;2022-09-13T05:43:25;16.70;;;8.20;;
2474;SDS011;1248;48.694;10.160;2022-09-13T05:45:59;12.63;;;7.87;;
2474;SDS011;1248;48.694;10.160;2022-09-13T05:48:26;10.40;;;8.03;;
2474;SDS011;1248;48.694;10.160;2022-09-13T05:50:55;14.47;;;8.00;;
2474;SDS011;1248;48.694;10.160;2022-09-13T05:53:22;11.10;;;8.17;;
2474;SDS011;1248;48.694;10.160;2022-09-13T05:55:49;10.87;;;8.70;;
2474;SDS011;1248;48.694;10.160;2022-09-13T05:58:16;10.17;;;8.07;;
2474;SDS011;1248;48.694;10.160;2022-09-13T06:00:43;12.90;;;8.30;;
2474;SDS011;1248;48.694;10.160;2022-09-13T06:03:10;10.80;;;7.90;;
2474;SDS011;1248;48.694;10.160;2022-09-13T06:05:37;9.43;;;6.83;;
2474;SDS011;1248;48.694;10.160;2022-09-13T06:08:06;15.63;;;8.17;;
2474;SDS011;1248;48.694;10.160;2022-09-13T06:10:33;10.60;;;7.33;;
2474;SDS011;1248;48.694;10.160;2022-09-13T06:13:00;10.10;;;7.53;;
2474;SDS011;1248;48.694;10.160;2022-09-13T06:15:27;11.70;;;8.83;;
2474;SDS011;1248;48.694;10.160;2022-09-13T06:17:54;12.27;;;7.13;;
2474;SDS011;1248;48.694;10.160;2022-09-13T06:20:21;9.77;;;7.57;;
2474;SDS011;1248;48.694;10.160;2022-09-13T06:22:48;11.33;;;7.60;;
2474;SDS011;1248;48.694;10.160;2022-09-13T06:25:17;8.60;;;7.00;;
2474;SDS011;1248;48.694;10.160;2022-09-13T06:27:44;11.27;;;6.97;;
2474;SDS011;1248;48.694;10.160;2022-09-13T06:30:11;11.20;;;7.17;;
2474;SDS011;1248;48.694;10.160;2022-09-13T06:32:40;11.47;;;7.33;;
2474;SDS011;1248;48.694;10.160;2022-09-13T06:35:07;12.00;;;8.00;;
2474;SDS011;1248;48.694;10.160;2022-09-13T06:37:34;9.87;;;7.13;;
2474;SDS011;1248;48.694;10.160;2022-09-13T06:40:02;8.60;;;7.70;;
2474;SDS011;1248;48.694;10.160;2022-09-13T06:45:01;9.00;;;6.60;;
2474;SDS011;1248;48.694;10.160;2022-09-13T06:47:29;8.80;;;7.33;;
2474;SDS011;1248;48.694;10.160;2022-09-13T06:49:56;9.73;;;7.53;;
2474;SDS011;1248;48.694;10.160;2022-09-13T06:52:23;9.23;;;7.57;;
2474;SDS011;1248;48.694;10.160;2022-09-13T06:54:50;11.93;;;7.60;;
2474;SDS011;1248;48.694;10.160;2022-09-13T06:57:17;10.17;;;7.00;;
2474;SDS011;1248;48.694;10.160;2022-09-13T06:59:46;9.50;;;7.67;;
2474;SDS011;1248;48.694;10.160;2022-09-13T07:02:13;9.80;;;7.10;;
2474;SDS011;1248;48.694;10.160;2022-09-13T07:04:40;10.87;;;7.63;;
2474;SDS011;1248;48.694;10.160;2022-09-13T07:07:07;12.93;;;8.10;;
2474;SDS011;1248;48.694;10.160;2022-09-13T07:09:34;9.80;;;7.43;;
2474;SDS011;1248;48.694;10.160;2022-09-13T07:12:01;10.57;;;7.83;;
2474;SDS011;1248;48.694;10.160;2022-09-13T07:14:31;14.23;;;9.23;;
2474;SDS011;1248;48.694;10.160;2022-09-13T07:16:59;12.40;;;8.20;;
2474;SDS011;1248;48.694;10.160;2022-09-13T07:19:26;11.13;;;8.60;;
2474;SDS011;1248;48.694;10.160;2022-09-13T07:21:55;10.83;;;8.80;;
2474;SDS011;1248;48.694;10.160;2022-09-13T07:24:22;12.10;;;8.43;;
2474;SDS011;1248;48.694;10.160;2022-09-13T07:26:50;9.73;;;8.67;;
2474;SDS011;1248;48.694;10.160;2022-09-13T07:29:17;12.37;;;8.87;;
2474;SDS011;1248;48.694;10.160;2022-09-13T07:31:48;17.50;;;11.27;;
2474;SDS011;1248;48.694;10.160;2022-09-13T07:34:17;12.40;;;8.63;;
2474;SDS011;1248;48.694;10.160;2022-09-13T07:36:46;12.00;;;9.10;;
2474;SDS011;1248;48.694;10.160;2022-09-13T07:39:13;10.07;;;8.23;;
2474;SDS011;1248;48.694;10.160;2022-09-13T07:41:41;13.67;;;7.90;;
2474;SDS011;1248;48.694;10.160;2022-09-13T07:44:08;10.77;;;8.43;;
2474;SDS011;1248;48.694;10.160;2022-09-13T07:46:36;15.87;;;8.53;;
2474;SDS011;1248;48.694;10.160;2022-09-13T07:49:08;7.73;;;6.80;;
2474;SDS011;1248;48.694;10.160;2022-09-13T07:51:38;14.37;;;8.87;;
2474;SDS011;1248;48.694;10.160;2022-09-13T07:54:08;10.47;;;8.47;;
2474;SDS011;1248;48.694;10.160;2022-09-13T07:56:37;13.07;;;7.53;;
2474;SDS011;1248;48.694;10.160;2022-09-13T07:59:05;10.80;;;8.13;;
2474;SDS011;1248;48.694;10.160;2022-09-13T08:01:34;9.60;;;7.43;;
2474;SDS011;1248;48.694;10.160;2022-09-13T08:04:03;12.40;;;7.80;;
2474;SDS011;1248;48.694;10.160;2022-09-13T08:06:31;10.37;;;7.70;;
2474;SDS011;1248;48.694;10.160;2022-09-13T08:09:00;9.33;;;7.70;;
2474;SDS011;1248;48.694;10.160;2022-09-13T08:11:28;9.60;;;7.50;;
2474;SDS011;1248;48.694;10.160;2022-09-13T08:13:56;10.20;;;6.27;;
2474;SDS011;1248;48.694;10.160;2022-09-13T08:16:24;7.40;;;6.67;;
2474;SDS011;1248;48.694;10.160;2022-09-13T08:18:52;11.23;;;7.40;;
2474;SDS011;1248;48.694;10.160;2022-09-13T08:21:21;8.90;;;7.17;;
2474;SDS011;1248;48.694;10.160;2022-09-13T08:23:49;7.40;;;6.07;;
2474;SDS011;1248;48.694;10.160;2022-09-13T08:26:17;8.60;;;6.83;;
2474;SDS011;1248;48.694;10.160;2022-09-13T08:28:44;5.60;;;5.10;;
2474;SDS011;1248;48.694;10.160;2022-09-13T08:31:11;11.73;;;6.43;;
2474;SDS011;1248;48.694;10.160;2022-09-13T08:33:42;7.00;;;6.07;;
2474;SDS011;1248;48.694;10.160;2022-09-13T08:36:10;6.10;;;5.50;;
2474;SDS011;1248;48.694;10.160;2022-09-13T08:38:37;5.80;;;5.30;;
2474;SDS011;1248;48.694;10.160;2022-09-13T08:43:58;7.47;;;6.23;;
2474;SDS011;1248;48.694;10.160;2022-09-13T08:46:28;6.60;;;5.90;;
2474;SDS011;1248;48.694;10.160;2022-09-13T08:48:59;17.47;;;11.77;;
2474;SDS011;1248;48.694;10.160;2022-09-13T08:51:30;12.90;;;9.67;;
2474;SDS011;1248;48.694;10.160;2022-09-13T08:53:58;13.67;;;6.13;;
2474;SDS011;1248;48.694;10.160;2022-09-13T08:56:31;10.87;;;5.40;;
2474;SDS011;1248;48.694;10.160;2022-09-13T08:59:06;7.87;;;5.17;;
2474;SDS011;1248;48.694;10.160;2022-09-13T09:01:46;5.43;;;4.40;;
2474;SDS011;1248;48.694;10.160;2022-09-13T09:04:36;5.80;;;4.83;;
2474;SDS011;1248;48.694;10.160;2022-09-13T09:07:10;7.23;;;4.70;;
2474;SDS011;1248;48.694;10.160;2022-09-13T09:09:40;9.97;;;4.50;;
2474;SDS011;1248;48.694;10.160;2022-09-13T09:12:15;5.20;;;4.30;;
2474;SDS011;1248;48.694;10.160;2022-09-13T09:14:46;6.50;;;4.27;;
2474;SDS011;1248;48.694;10.160;2022-09-13T09:17:23;6.57;;;4.07;;
2474;SDS011;1248;48.694;10.160;2022-09-13T09:19:52;5.40;;;4.30;;
2474;SDS011;1248;48.694;10.160;2022-09-13T09:22:22;5.30;;;3.93;;
2474;SDS011;1248;48.694;10.160;2022-09-13T09:24:51;5.53;;;3.47;;
2474;SDS011;1248;48.694;10.160;2022-09-13T09:27:21;5.80;;;3.57;;
2474;SDS011;1248;48.694;10.160;2022-09-13T09:29:49;4.33;;;3.57;;
2474;SDS011;1248;48.694;10.160;2022-09-13T09:32:21;8.57;;;3.50;;
2474;SDS011;1248;48.694;10.160;2022-09-13T09:35:00;4.50;;;3.57;;
2474;SDS011;1248;48.694;10.160;2022-09-13T09:37:34;3.23;;;2.93;;
2474;SDS011;1248;48.694;10.160;2022-09-13T09:40:03;3.67;;;3.37;;
2474;SDS011;1248;48.694;10.160;2022-09-13T09:42:37;3.40;;;3.10;;
2474;SDS011;1248;48.694;10.160;2022-09-13T09:45:16;5.57;;;2.80;;
2474;SDS011;1248;48.694;10.160;2022-09-13T09:47:49;5.93;;;3.27;;
2474;SDS011;1248;48.694;10.160;2022-09-13T09:50:18;6.20;;;3.10;;
2474;SDS011;1248;48.694;10.160;2022-09-13T09:52:48;6.00;;;2.87;;
2474;SDS011;1248;48.694;10.160;2022-09-13T09:55:23;5.17;;;2.70;;
2474;SDS011;1248;48.694;10.160;2022-09-13T09:57:55;4.57;;;2.57;;
2474;SDS011;1248;48.694;10.160;2022-09-13T10:00:24;3.00;;;2.00;;
2474;SDS011;1248;48.694;10.160;2022-09-13T10:02:54;5.40;;;1.80;;
2474;SDS011;1248;48.694;10.160;2022-09-13T10:05:24;3.40;;;2.10;;
2474;SDS011;1248;48.694;10.160;2022-09-13T10:07:52;3.43;;;2.33;;
2474;SDS011;1248;48.694;10.160;2022-09-13T10:10:23;2.40;;;2.20;;
2474;SDS011;1248;48.694;10.160;2022-09-13T10:12:52;2.23;;;1.87;;
2474;SDS011;1248;48.694;10.160;2022-09-13T10:15:22;2.80;;;1.60;;
2474;SDS011;1248;48.694;10.160;2022-09-13T10:18:04;3.20;;;1.90;;
2474;SDS011;1248;48.694;10.160;2022-09-13T10:20:38;2.30;;;2.00;;
2474;SDS011;1248;48.694;10.160;2022-09-13T10:23:10;1.80;;;1.70;;
2474;SDS011;1248;48.694;10.160;2022-09-13T10:25:43;2.80;;;1.67;;
2474;SDS011;1248;48.694;10.160;2022-09-13T10:28:14;3.10;;;2.10;;
2474;SDS011;1248;48.694;10.160;2022-09-13T10:30:44;2.57;;;2.20;;
2474;SDS011;1248;48.694;10.160;2022-09-13T10:33:17;4.43;;;2.07;;
2474;SDS011;1248;48.694;10.160;2022-09-13T10:35:48;5.60;;;2.00;;
2474;SDS011;1248;48.694;10.160;2022-09-13T10:38:18;2.67;;;2.00;;
2474;SDS011;1248;48.694;10.160;2022-09-13T10:40:51;1.87;;;1.50;;
2474;SDS011;1248;48.694;10.160;2022-09-13T10:43:21;6.10;;;2.60;;
2474;SDS011;1248;48.694;10.160;2022-09-13T10:45:49;2.80;;;2.00;;
2474;SDS011;1248;48.694;10.160;2022-09-13T10:48:17;2.17;;;1.90;;
2474;SDS011;1248;48.694;10.160;2022-09-13T10:53:36;7.63;;;2.53;;
2474;SDS011;1248;48.694;10.160;2022-09-13T10:56:04;3.73;;;2.10;;
2474;SDS011;1248;48.694;10.160;2022-09-13T10:58:33;2.97;;;2.30;;
2474;SDS011;1248;48.694;10.160;2022-09-13T11:01:04;2.37;;;2.10;;
2474;SDS011;1248;48.694;10.160;2022-09-13T11:03:49;3.80;;;2.17;;
2474;SDS011;1248;48.694;10.160;2022-09-13T11:06:26;5.00;;;1.93;;
2474;SDS011;1248;48.694;10.160;2022-09-13T11:08:59;2.30;;;1.93;;
2474;SDS011;1248;48.694;10.160;2022-09-13T11:11:32;3.00;;;1.90;;
2474;SDS011;1248;48.694;10.160;2022-09-13T11:14:09;1.97;;;1.87;;
2474;SDS011;1248;48.694;10.160;2022-09-13T11:16:50;2.87;;;1.90;;
2474;SDS011;1248;48.694;10.160;2022-09-13T11:22:23;3.37;;;1.60;;
2474;SDS011;1248;48.694;10.160;2022-09-13T11:24:59;1.80;;;1.50;;
2474;SDS011;1248;48.694;10.160;2022-09-13T11:27:34;1.90;;;1.67;;
2474;SDS011;1248;48.694;10.160;2022-09-13T11:30:11;2.10;;;1.50;;
2474;SDS011;1248;48.694;10.160;2022-09-13T11:32:45;2.20;;;2.00;;
2474;SDS011;1248;48.694;10.160;2022-09-13T11:35:27;4.00;;;1.97;;
2474;SDS011;1248;48.694;10.160;2022-09-13T11:38:02;3.10;;;1.77;;
2474;SDS011;1248;48.694;10.160;2022-09-13T11:40:36;4.40;;;1.87;;
2474;SDS011;1248;48.694;10.160;2022-09-13T11:43:16;1.70;;;1.60;;
2474;SDS011;1248;48.694;10.160;2022-09-13T11:45:53;3.40;;;1.93;;
2474;SDS011;1248;48.694;10.160;2022-09-13T11:48:29;2.47;;;1.70;;
2474;SDS011;1248;48.694;10.160;2022-09-13T11:51:07;1.63;;;1.23;;
2474;SDS011;1248;48.694;10.160;2022-09-13T11:53:40;1.73;;;1.60;;
2474;SDS011;1248;48.694;10.160;2022-09-13T11:56:17;1.77;;;1.40;;
2474;SDS011;1248;48.694;10.160;2022-09-13T11:58:49;1.50;;;1.40;;
2474;SDS011;1248;48.694;10.160;2022-09-13T12:01:21;3.50;;;1.67;;
2474;SDS011;1248;48.694;10.160;2022-09-13T12:03:51;5.13;;;1.40;;
2474;SDS011;1248;48.694;10.160;2022-09-13T12:06:24;3.00;;;1.40;;
2474;SDS011;1248;48.694;10.160;2022-09-13T12:08:54;2.47;;;1.37;;
2474;SDS011;1248;48.694;10.160;2022-09-13T12:11:24;2.27;;;1.20;;
2474;SDS011;1248;48.694;10.160;2022-09-13T12:13:54;1.20;;;1.00;;
2474;SDS011;1248;48.694;10.160;2022-09-13T12:16:25;2.10;;;1.30;;
2474;SDS011;1248;48.694;10.160;2022-09-13T12:18:55;2.27;;;1.00;;
2474;SDS011;1248;48.694;10.160;2022-09-13T12:21:24;2.80;;;1.20;;
2474;SDS011;1248;48.694;10.160;2022-09-13T12:23:54;1.60;;;1.30;;
2474;SDS011;1248;48.694;10.160;2022-09-13T12:26:28;2.03;;;1.23;;
2474;SDS011;1248;48.694;10.160;2022-09-13T12:28:57;1.53;;;1.13;;
2474;SDS011;1248;48.694;10.160;2022-09-13T12:31:29;3.60;;;1.30;;
2474;SDS011;1248;48.694;10.160;2022-09-13T12:33:57;1.73;;;1.40;;
2474;SDS011;1248;48.694;10.160;2022-09-13T12:39:28;1.27;;;1.17;;
2474;SDS011;1248;48.694;10.160;2022-09-13T12:42:09;3.23;;;1.23;;
2474;SDS011;1248;48.694;10.160;2022-09-13T12:44:56;1.70;;;1.30;;
2474;SDS011;1248;48.694;10.160;2022-09-13T12:47:36;1.73;;;1.20;;
2474;SDS011;1248;48.694;10.160;2022-09-13T12:50:20;1.90;;;1.40;;
2474;SDS011;1248;48.694;10.160;2022-09-13T12:52:56;2.27;;;1.30;;
2474;SDS011;1248;48.694;10.160;2022-09-13T12:55:32;1.30;;;1.20;;
2474;SDS011;1248;48.694;10.160;2022-09-13T12:58:22;2.53;;;1.30;;
2474;SDS011;1248;48.694;10.160;2022-09-13T13:01:02;2.23;;;1.30;;
2474;SDS011;1248;48.694;10.160;2022-09-13T13:03:36;3.50;;;1.33;;
2474;SDS011;1248;48.694;10.160;2022-09-13T13:06:24;4.40;;;1.33;;
2474;SDS011;1248;48.694;10.160;2022-09-13T13:08:55;2.17;;;1.40;;
2474;SDS011;1248;48.694;10.160;2022-09-13T13:11:24;2.33;;;1.40;;
2474;SDS011;1248;48.694;10.160;2022-09-13T13:13:53;1.70;;;1.20;;
2474;SDS011;1248;48.694;10.160;2022-09-13T13:16:24;1.80;;;1.40;;
2474;SDS011;1248;48.694;10.160;2022-09-13T13:18:55;2.00;;;1.40;;
2474;SDS011;1248;48.694;10.160;2022-09-13T13:21:33;2.13;;;1.17;;
2474;SDS011;1248;48.694;10.160;2022-09-13T13:33:22;1.53;;;1.00;;
2474;SDS011;1248;48.694;10.160;2022-09-13T13:35:53;1.07;;;0.90;;
2474;SDS011;1248;48.694;10.160;2022-09-13T13:50:22;3.00;;;1.10;;
2474;SDS011;1248;48.694;10.160;2022-09-13T13:52:51;2.10;;;1.00;;
2474;SDS011;1248;48.694;10.160;2022-09-13T13:55:27;2.37;;;1.53;;
2474;SDS011;1248;48.694;10.160;2022-09-13T13:58:09;1.47;;;1.00;;
2474;SDS011;1248;48.694;10.160;2022-09-13T14:00:44;2.70;;;1.20;;
2474;SDS011;1248;48.694;10.160;2022-09-13T14:03:15;2.40;;;1.27;;
2474;SDS011;1248;48.694;10.160;2022-09-13T14:05:50;3.30;;;1.10;;
2474;SDS011;1248;48.694;10.160;2022-09-13T14:08:27;2.27;;;1.03;;
2474;SDS011;1248;48.694;10.160;2022-09-13T14:10:59;2.97;;;1.60;;
2474;SDS011;1248;48.694;10.160;2022-09-13T14:13:53;2.67;;;1.00;;
2474;SDS011;1248;48.694;10.160;2022-09-13T14:16:30;3.20;;;1.20;;
2474;SDS011;1248;48.694;10.160;2022-09-13T14:19:09;2.87;;;1.60;;
2474;SDS011;1248;48.694;10.160;2022-09-13T14:24:39;1.53;;;1.30;;
2474;SDS011;1248;48.694;10.160;2022-09-13T14:27:12;2.73;;;1.40;;
2474;SDS011;1248;48.694;10.160;2022-09-13T14:29:43;6.67;;;1.30;;
2474;SDS011;1248;48.694;10.160;2022-09-13T14:32:12;1.83;;;1.20;;
2474;SDS011;1248;48.694;10.160;2022-09-13T14:34:49;1.47;;;1.23;;
2474;SDS011;1248;48.694;10.160;2022-09-13T14:37:18;5.07;;;1.00;;
2474;SDS011;1248;48.694;10.160;2022-09-13T14:39:58;1.50;;;1.20;;
2474;SDS011;1248;48.694;10.160;2022-09-13T14:42:36;1.70;;;1.00;;
2474;SDS011;1248;48.694;10.160;2022-09-13T14:45:04;3.50;;;1.23;;
2474;SDS011;1248;48.694;10.160;2022-09-13T14:47:33;1.20;;;1.00;;
2474;SDS011;1248;48.694;10.160;2022-09-13T14:50:03;2.27;;;1.20;;
2474;SDS011;1248;48.694;10.160;2022-09-13T14:52:33;2.10;;;1.20;;
2474;SDS011;1248;48.694;10.160;2022-09-13T14:55:04;2.97;;;1.30;;
2474;SDS011;1248;48.694;10.160;2022-09-13T14:57:35;2.83;;;1.33;;
2474;SDS011;1248;48.694;10.160;2022-09-13T15:00:04;1.77;;;1.10;;
2474;SDS011;1248;48.694;10.160;2022-09-13T15:02:35;8.20;;;1.20;;
2474;SDS011;1248;48.694;10.160;2022-09-13T15:05:04;1.70;;;0.97;;
2474;SDS011;1248;48.694;10.160;2022-09-13T15:07:34;2.67;;;1.10;;
2474;SDS011;1248;48.694;10.160;2022-09-13T15:10:08;4.90;;;1.43;;
2474;SDS011;1248;48.694;10.160;2022-09-13T15:12:49;2.57;;;1.20;;
2474;SDS011;1248;48.694;10.160;2022-09-13T15:15:21;1.57;;;1.33;;
2474;SDS011;1248;48.694;10.160;2022-09-13T15:17:51;2.33;;;1.20;;
2474;SDS011;1248;48.694;10.160;2022-09-13T15:20:19;3.00;;;1.37;;
2474;SDS011;1248;48.694;10.160;2022-09-13T15:22:47;1.73;;;1.07;;
2474;SDS011;1248;48.694;10.160;2022-09-13T15:25:17;1.87;;;1.37;;
2474;SDS011;1248;48.694;10.160;2022-09-13T15:27:46;1.53;;;1.20;;
2474;SDS011;1248;48.694;10.160;2022-09-13T15:30:21;3.30;;;1.37;;
2474;SDS011;1248;48.694;10.160;2022-09-13T15:33:02;1.57;;;1.10;;
2474;SDS011;1248;48.694;10.160;2022-09-13T15:35:33;2.53;;;1.20;;
2474;SDS011;1248;48.694;10.160;2022-09-13T15:38:14;2.27;;;1.33;;
2474;SDS011;1248;48.694;10.160;2022-09-13T15:40:45;3.00;;;1.20;;
2474;SDS011;1248;48.694;10.160;2022-09-13T15:43:13;1.90;;;1.20;;
2474;SDS011;1248;48.694;10.160;2022-09-13T15:45:40;1.33;;;1.20;;
2474;SDS011;1248;48.694;10.160;2022-09-13T15:48:07;1.57;;;1.00;;
2474;SDS011;1248;48.694;10.160;2022-09-13T15:50:42;1.77;;;1.10;;
2474;SDS011;1248;48.694;10.160;2022-09-13T15:53:09;2.70;;;1.20;;
2474;SDS011;1248;48.694;10.160;2022-09-13T15:55:38;2.93;;;1.10;;
2474;SDS011;1248;48.694;10.160;2022-09-13T15:58:07;3.90;;;1.40;;
2474;SDS011;1248;48.694;10.160;2022-09-13T16:00:35;1.77;;;1.40;;